createdAt,value
2022-09-15T00:00:16.511Z,16.00
2022-09-15T00:02:41.482Z,15.90
2022-09-15T00:05:06.290Z,15.90
2022-09-15T00:07:29.842Z,15.80
2022-09-15T00:09:53.310Z,15.80
2022-09-15T00:12:17.074Z,15.90
2022-09-15T00:14:40.485Z,15.80
2022-09-15T00:17:04.414Z,15.80
2022-09-15T00:19:29.799Z,15.70
2022-09-15T00:21:53.720Z,15.70
2022-09-15T00:24:17.208Z,15.70
2022-09-15T00:26:40.792Z,15.60
2022-09-15T00:29:06.303Z,15.60
2022-09-15T00:31:31.780Z,15.50
2022-09-15T00:34:02.488Z,15.60
2022-09-15T00:36:28.229Z,15.60
2022-09-15T00:38:52.409Z,15.70
2022-09-15T00:41:20.861Z,15.60
2022-09-15T00:43:51.599Z,15.50
2022-09-15T00:46:17.531Z,15.50
2022-09-15T00:48:45.638Z,15.40
2022-09-15T00:51:11.668Z,15.50
2022-09-15T00:53:37.240Z,15.60
2022-09-15T00:56:02.969Z,15.50
2022-09-15T00:58:30.237Z,15.50
2022-09-15T01:00:58.066Z,15.50
2022-09-15T01:03:21.286Z,15.50
2022-09-15T01:05:49.716Z,15.40
2022-09-15T01:08:18.835Z,15.60
2022-09-15T01:10:44.839Z,15.50
2022-09-15T01:13:10.593Z,15.40
2022-09-15T01:15:43.220Z,15.30
2022-09-15T01:18:16.369Z,15.30
2022-09-15T01:20:58.336Z,15.40
2022-09-15T01:24:23.021Z,15.30
2022-09-15T01:27:24.397Z,15.30
2022-09-15T01:30:15.959Z,15.20
2022-09-15T01:33:05.282Z,15.30
2022-09-15T01:35:43.841Z,15.30
2022-09-15T01:38:14.986Z,15.30
2022-09-15T01:40:44.256Z,15.30
2022-09-15T01:43:10.518Z,15.10
2022-09-15T01:45:36.912Z,15.10
2022-09-15T01:48:05.984Z,15.10
2022-09-15T01:50:34.234Z,15.20
2022-09-15T01:53:02.574Z,15.10
2022-09-15T01:55:41.401Z,15.00
2022-09-15T01:58:04.690Z,15.10
2022-09-15T02:00:27.866Z,15.20
2022-09-15T02:02:58.295Z,15.10
2022-09-15T02:05:30.279Z,15.10
2022-09-15T02:08:01.897Z,15.00
2022-09-15T02:10:35.115Z,15.00
2022-09-15T02:13:16.923Z,15.00
2022-09-15T02:15:46.973Z,15.10
2022-09-15T02:18:15.185Z,15.00
2022-09-15T02:20:49.209Z,15.00
2022-09-15T02:23:19.688Z,15.00
2022-09-15T02:25:47.094Z,15.00
2022-09-15T02:28:12.968Z,15.00
2022-09-15T02:30:40.467Z,15.10
2022-09-15T02:33:08.293Z,15.20
2022-09-15T02:35:36.002Z,15.20
2022-09-15T02:38:00.739Z,15.20
2022-09-15T02:40:24.462Z,15.10
2022-09-15T02:42:55.791Z,15.10
2022-09-15T02:45:20.098Z,15.20
2022-09-15T02:47:43.409Z,15.30
2022-09-15T02:50:08.390Z,15.20
2022-09-15T02:52:32.966Z,15.20
2022-09-15T02:54:56.226Z,15.30
2022-09-15T02:57:19.817Z,15.40
2022-09-15T03:00:12.052Z,15.30
2022-09-15T03:02:35.370Z,15.40
2022-09-15T03:04:58.612Z,15.40
2022-09-15T03:07:21.959Z,15.30
2022-09-15T03:09:47.247Z,15.40
2022-09-15T03:12:10.529Z,15.50
2022-09-15T03:14:34.128Z,15.50
2022-09-15T03:16:58.349Z,15.50
2022-09-15T03:19:21.717Z,15.40
2022-09-15T03:21:44.866Z,15.50
2022-09-15T03:24:08.465Z,15.60
2022-09-15T03:26:33.377Z,15.60
2022-09-15T03:28:56.561Z,15.50
2022-09-15T03:31:20.431Z,15.40
2022-09-15T03:33:43.671Z,15.50
2022-09-15T03:36:08.042Z,15.50
2022-09-15T03:38:31.497Z,15.60
2022-09-15T03:41:00.420Z,15.70
2022-09-15T03:43:25.122Z,15.60
2022-09-15T03:45:48.347Z,15.60
2022-09-15T03:48:11.577Z,15.70
2022-09-15T03:50:36.393Z,15.60
2022-09-15T03:53:01.257Z,15.70
2022-09-15T03:55:24.446Z,15.60
2022-09-15T03:57:47.650Z,15.50
2022-09-15T04:00:14.512Z,15.60
2022-09-15T04:02:37.807Z,15.70
2022-09-15T04:05:01.032Z,15.70
2022-09-15T04:07:24.347Z,15.70
2022-09-15T04:09:47.534Z,15.70
2022-09-15T04:12:11.959Z,15.80
2022-09-15T04:14:35.222Z,15.80
2022-09-15T04:17:00.148Z,15.80
2022-09-15T04:19:23.322Z,15.80
2022-09-15T04:21:47.450Z,15.80
2022-09-15T04:24:10.613Z,15.90
2022-09-15T04:26:36.206Z,15.80
2022-09-15T04:29:03.964Z,15.80
2022-09-15T04:31:28.035Z,15.80
2022-09-15T04:33:54.866Z,15.80
2022-09-15T04:36:21.057Z,15.80
2022-09-15T04:38:44.863Z,15.90
2022-09-15T04:41:08.660Z,15.80
2022-09-15T04:43:32.726Z,15.90
2022-09-15T04:45:56.474Z,15.90
2022-09-15T04:48:19.763Z,15.80
2022-09-15T04:50:44.618Z,15.90
2022-09-15T04:53:07.931Z,15.80
2022-09-15T04:55:33.464Z,15.80
2022-09-15T04:57:56.641Z,15.90
2022-09-15T05:00:20.081Z,15.90
2022-09-15T05:02:43.637Z,15.90
2022-09-15T05:05:07.894Z,15.90
2022-09-15T05:07:32.486Z,15.90
2022-09-15T05:09:56.663Z,15.90
2022-09-15T05:12:19.846Z,15.90
2022-09-15T05:14:43.007Z,15.90
2022-09-15T05:17:06.330Z,15.80
2022-09-15T05:19:29.524Z,15.90
2022-09-15T05:21:52.789Z,15.90
2022-09-15T05:24:17.358Z,15.90
2022-09-15T05:26:41.634Z,15.80
2022-09-15T05:29:04.977Z,15.90
2022-09-15T05:31:31.739Z,15.80
2022-09-15T05:33:55.686Z,15.80
2022-09-15T05:36:21.191Z,15.90
2022-09-15T05:38:45.493Z,15.90
2022-09-15T05:41:13.878Z,15.90
2022-09-15T05:43:39.719Z,15.90
2022-09-15T05:46:03.527Z,15.80
2022-09-15T05:48:30.853Z,16.00
2022-09-15T05:50:56.269Z,15.90
2022-09-15T05:53:19.843Z,15.90
2022-09-15T05:55:44.874Z,15.90
2022-09-15T06:10:54.978Z,15.10
2022-09-15T06:13:19.361Z,16.20
2022-09-15T06:15:43.309Z,16.10
2022-09-15T06:18:07.226Z,16.10
2022-09-15T06:20:30.949Z,16.20
2022-09-15T06:22:56.139Z,16.20
2022-09-15T06:25:19.662Z,16.20
2022-09-15T06:27:44.551Z,16.30
2022-09-15T06:30:09.860Z,16.30
2022-09-15T06:32:33.630Z,16.30
2022-09-15T06:34:57.184Z,16.40
2022-09-15T06:37:20.665Z,16.40
2022-09-15T06:39:44.636Z,16.40
2022-09-15T06:42:09.528Z,16.30
2022-09-15T06:44:39.632Z,16.40
2022-09-15T06:47:03.698Z,16.50
2022-09-15T06:49:27.191Z,16.50
2022-09-15T06:51:50.726Z,16.60
2022-09-15T06:54:16.056Z,16.60
2022-09-15T06:56:40.235Z,16.60
2022-09-15T06:59:04.155Z,16.60
2022-09-15T07:01:31.563Z,16.50
2022-09-15T07:03:55.827Z,16.40
2022-09-15T07:06:19.627Z,16.50
2022-09-15T07:08:43.498Z,16.50
2022-09-15T07:11:07.582Z,16.60
2022-09-15T07:13:31.217Z,16.60
2022-09-15T07:15:57.462Z,16.70
2022-09-15T07:18:22.798Z,16.60
2022-09-15T07:20:46.294Z,16.80
2022-09-15T07:23:09.851Z,16.70
2022-09-15T07:25:33.298Z,16.80
2022-09-15T07:27:56.745Z,16.80
2022-09-15T07:30:20.209Z,16.70
2022-09-15T07:32:43.695Z,16.80
2022-09-15T07:35:09.892Z,17.00
2022-09-15T07:37:33.544Z,17.10
2022-09-15T07:39:57.108Z,16.90
2022-09-15T07:42:20.585Z,16.90
2022-09-15T07:44:44.053Z,17.00
2022-09-15T07:47:07.743Z,17.10
2022-09-15T07:49:31.511Z,17.20
2022-09-15T07:51:56.408Z,17.40
2022-09-15T07:54:22.914Z,17.30
2022-09-15T07:56:48.642Z,17.20
2022-09-15T07:59:12.436Z,17.20
2022-09-15T08:01:35.939Z,17.20
2022-09-15T08:03:59.484Z,17.20
2022-09-15T08:06:25.502Z,17.50
2022-09-15T08:08:55.054Z,17.40
2022-09-15T08:11:21.817Z,17.50
2022-09-15T08:13:45.418Z,17.50
2022-09-15T08:16:11.375Z,17.70
2022-09-15T08:18:35.266Z,17.70
2022-09-15T08:20:58.918Z,17.80
2022-09-15T08:23:23.175Z,17.50
2022-09-15T08:25:48.323Z,17.60
2022-09-15T08:28:11.959Z,17.60
2022-09-15T08:30:35.536Z,17.70
2022-09-15T08:32:59.007Z,17.60
2022-09-15T08:35:22.645Z,17.70
2022-09-15T08:37:46.513Z,17.90
2022-09-15T08:40:17.642Z,18.10
2022-09-15T08:42:45.141Z,18.20
2022-09-15T08:45:20.348Z,18.10
2022-09-15T08:47:49.363Z,18.20
2022-09-15T08:50:22.961Z,18.40
2022-09-15T08:52:53.062Z,18.40
2022-09-15T08:55:34.535Z,18.50
2022-09-15T08:57:59.584Z,18.40
2022-09-15T09:00:23.081Z,18.30
2022-09-15T09:03:21.479Z,18.50
2022-09-15T09:05:55.413Z,18.30
2022-09-15T09:09:25.626Z,18.40
2022-09-15T09:12:21.050Z,18.40
2022-09-15T09:15:03.963Z,18.60
2022-09-15T09:17:45.269Z,18.70
2022-09-15T09:20:33.436Z,18.70
2022-09-15T09:22:59.344Z,18.70
2022-09-15T09:25:28.581Z,18.80
2022-09-15T09:27:52.653Z,18.90
2022-09-15T09:30:20.405Z,18.90
2022-09-15T09:32:48.126Z,18.90
2022-09-15T09:35:26.856Z,18.90
2022-09-15T09:37:52.674Z,19.00
2022-09-15T09:40:17.146Z,19.20
2022-09-15T09:42:41.211Z,19.20
2022-09-15T09:45:07.624Z,19.30
2022-09-15T09:47:37.630Z,19.30
2022-09-15T09:50:02.242Z,19.40
2022-09-15T09:52:36.856Z,19.30
2022-09-15T09:55:02.484Z,19.20
2022-09-15T09:57:31.424Z,19.30
2022-09-15T10:00:35.818Z,19.10
2022-09-15T10:03:14.269Z,18.90
2022-09-15T10:05:38.120Z,18.90
2022-09-15T10:08:04.025Z,19.10
2022-09-15T10:10:32.293Z,19.10
2022-09-15T10:13:08.305Z,19.10
2022-09-15T10:15:34.115Z,19.10
2022-09-15T10:18:07.271Z,19.10
2022-09-15T10:20:35.462Z,19.30
2022-09-15T10:23:09.258Z,19.30
2022-09-15T10:25:58.134Z,19.40
2022-09-15T10:28:25.717Z,19.20
2022-09-15T10:31:06.651Z,19.30
2022-09-15T10:33:35.034Z,19.30
2022-09-15T10:36:05.832Z,19.40
2022-09-15T10:38:40.451Z,19.40
2022-09-15T10:41:23.434Z,19.40
2022-09-15T10:44:20.356Z,19.30
2022-09-15T10:46:56.800Z,19.50
2022-09-15T10:49:37.601Z,19.60
2022-09-15T10:52:13.557Z,19.50
2022-09-15T10:55:31.894Z,19.60
2022-09-15T10:58:22.511Z,19.50
2022-09-15T11:00:54.611Z,19.40
2022-09-15T11:03:54.368Z,19.30
2022-09-15T11:06:25.254Z,19.00
2022-09-15T11:09:15.108Z,19.00
2022-09-15T11:11:54.642Z,19.00
2022-09-15T11:14:41.673Z,19.00
2022-09-15T11:17:24.512Z,18.90
2022-09-15T11:20:14.143Z,19.00
2022-09-15T11:22:49.313Z,19.00
2022-09-15T11:25:19.134Z,19.00
2022-09-15T11:27:48.109Z,19.00
2022-09-15T11:30:20.070Z,18.90
2022-09-15T11:32:52.897Z,18.90
2022-09-15T11:35:38.241Z,19.00
2022-09-15T11:38:18.207Z,19.00
2022-09-15T11:40:48.667Z,19.10
2022-09-15T11:43:20.097Z,19.00
2022-09-15T11:45:50.084Z,19.00
2022-09-15T11:48:20.677Z,19.00
2022-09-15T11:50:48.637Z,19.00
2022-09-15T11:53:23.065Z,18.80
2022-09-15T11:55:54.824Z,18.80
2022-09-15T11:58:30.754Z,18.70
2022-09-15T12:00:58.020Z,18.70
2022-09-15T12:03:31.210Z,18.60
2022-09-15T12:06:00.521Z,18.70
2022-09-15T12:08:32.124Z,18.60
2022-09-15T12:10:58.205Z,18.50
2022-09-15T12:13:25.121Z,18.40
2022-09-15T12:15:52.249Z,18.50
2022-09-15T12:18:38.407Z,18.50
2022-09-15T12:21:16.115Z,18.60
2022-09-15T12:23:47.120Z,18.70
2022-09-15T12:26:18.823Z,18.90
2022-09-15T12:28:56.178Z,18.60
2022-09-15T12:31:41.138Z,18.70
2022-09-15T12:34:30.339Z,18.80
2022-09-15T12:39:39.416Z,18.70
2022-09-15T12:42:22.705Z,18.70
2022-09-15T12:44:51.290Z,18.70
2022-09-15T12:47:28.571Z,18.70
2022-09-15T12:49:54.468Z,18.60
2022-09-15T12:52:21.886Z,18.50
2022-09-15T12:54:55.775Z,18.40
2022-09-15T12:57:26.380Z,18.60
2022-09-15T12:59:49.983Z,18.70
2022-09-15T13:02:47.015Z,18.80
2022-09-15T13:05:18.025Z,18.70
2022-09-15T13:07:58.287Z,18.70
2022-09-15T13:10:45.156Z,18.50
2022-09-15T13:13:33.330Z,18.90
2022-09-15T13:15:58.689Z,18.90
2022-09-15T13:18:27.737Z,19.10
2022-09-15T13:21:00.380Z,19.10
2022-09-15T13:23:28.225Z,19.10
2022-09-15T13:25:54.311Z,18.90
2022-09-15T13:28:18.970Z,18.90
2022-09-15T13:30:56.810Z,19.00
2022-09-15T13:40:00.642Z,18.80
2022-09-15T13:42:49.322Z,19.00
2022-09-15T13:45:45.537Z,19.10
2022-09-15T13:48:46.045Z,19.20
2022-09-15T13:51:20.780Z,19.20
2022-09-15T13:53:51.402Z,19.20
2022-09-15T13:56:24.942Z,19.40
2022-09-15T13:59:12.105Z,19.40
2022-09-15T14:01:38.796Z,19.40
2022-09-15T14:04:06.748Z,19.50
2022-09-15T14:06:37.232Z,19.60
2022-09-15T14:09:04.165Z,19.60
2022-09-15T14:11:32.233Z,19.60
2022-09-15T14:13:58.090Z,19.70
2022-09-15T14:16:26.027Z,19.70
2022-09-15T14:18:49.586Z,19.70
2022-09-15T14:21:20.362Z,19.70
2022-09-15T14:23:48.249Z,19.70
2022-09-15T14:26:22.149Z,19.80
2022-09-15T14:28:53.649Z,19.60
2022-09-15T14:31:17.361Z,19.70
2022-09-15T14:33:42.699Z,19.50
2022-09-15T14:36:22.367Z,19.40
2022-09-15T14:38:45.900Z,19.50
2022-09-15T14:41:20.439Z,19.50
2022-09-15T14:43:47.233Z,19.50
2022-09-15T14:46:20.793Z,19.40
2022-09-15T14:48:44.557Z,19.50
2022-09-15T14:51:20.348Z,19.50
2022-09-15T14:53:46.794Z,19.40
2022-09-15T14:56:16.006Z,19.60
2022-09-15T14:58:44.519Z,19.60
2022-09-15T15:01:17.697Z,19.60
2022-09-15T15:03:47.536Z,19.20
2022-09-15T15:06:28.920Z,19.20
2022-09-15T15:08:58.316Z,19.30
2022-09-15T15:11:22.374Z,19.40
2022-09-15T15:13:52.187Z,19.40
2022-09-15T15:16:26.121Z,19.40
2022-09-15T15:18:51.387Z,19.50
2022-09-15T15:21:40.587Z,19.50
2022-09-15T15:24:20.383Z,19.30
2022-09-15T15:26:46.326Z,19.40
2022-09-15T15:29:40.832Z,19.40
2022-09-15T15:32:11.262Z,19.20
2022-09-15T15:34:35.292Z,19.40
2022-09-15T15:37:04.091Z,19.50
2022-09-15T15:39:27.581Z,19.60
2022-09-15T15:42:03.086Z,19.40
2022-09-15T15:44:29.277Z,19.60
2022-09-15T15:46:55.730Z,19.40
2022-09-15T15:49:27.461Z,19.20
2022-09-15T15:51:50.969Z,19.20
2022-09-15T15:54:15.302Z,19.20
2022-09-15T15:56:38.780Z,19.10
2022-09-15T15:59:02.307Z,19.00
2022-09-15T16:01:26.545Z,19.10
2022-09-15T16:03:50.072Z,19.10
2022-09-15T16:06:15.933Z,19.00
2022-09-15T16:08:43.975Z,18.90
2022-09-15T16:11:12.000Z,18.80
2022-09-15T16:13:35.593Z,18.80
2022-09-15T16:16:01.324Z,18.80
2022-09-15T16:18:25.426Z,19.10
2022-09-15T16:20:48.882Z,19.10
2022-09-15T16:23:18.503Z,19.10
2022-09-15T16:25:49.788Z,19.20
2022-09-15T16:28:13.294Z,19.40
2022-09-15T16:30:37.496Z,19.30
2022-09-15T16:33:02.184Z,19.20
2022-09-15T16:35:39.393Z,19.10
2022-09-15T16:38:02.889Z,18.80
2022-09-15T16:40:27.796Z,18.90
2022-09-15T16:42:53.230Z,18.90
2022-09-15T16:45:27.374Z,18.80
2022-09-15T16:47:50.941Z,18.70
2022-09-15T16:50:14.485Z,18.70
2022-09-15T16:52:39.352Z,18.80
2022-09-15T16:55:02.906Z,18.80
2022-09-15T16:57:27.778Z,18.80
2022-09-15T16:59:51.448Z,18.60
2022-09-15T17:02:15.471Z,18.90
2022-09-15T17:04:39.017Z,18.90
2022-09-15T17:07:02.510Z,18.80
2022-09-15T17:09:26.041Z,18.80
2022-09-15T17:11:49.906Z,18.80
2022-09-15T17:14:18.567Z,18.90
2022-09-15T17:16:42.106Z,18.80
2022-09-15T17:19:05.770Z,18.70
2022-09-15T17:21:29.747Z,18.80
2022-09-15T17:23:54.511Z,18.60
2022-09-15T17:26:24.681Z,18.70
2022-09-15T17:28:50.500Z,18.60
2022-09-15T17:31:23.669Z,18.60
2022-09-15T17:33:48.535Z,18.70
2022-09-15T17:36:12.761Z,18.50
2022-09-15T17:38:36.638Z,18.50
2022-09-15T17:41:00.286Z,18.30
2022-09-15T17:43:27.482Z,18.50
2022-09-15T17:45:53.650Z,18.40
2022-09-15T17:48:20.249Z,18.40
2022-09-15T17:50:45.386Z,18.30
2022-09-15T17:53:15.463Z,18.40
2022-09-15T17:55:42.111Z,18.30
2022-09-15T17:58:09.142Z,18.20
2022-09-15T18:00:35.723Z,18.20
2022-09-15T18:03:03.299Z,18.30
2022-09-15T18:05:32.460Z,18.40
2022-09-15T18:07:57.938Z,18.20
2022-09-15T18:10:21.634Z,18.30
2022-09-15T18:12:48.413Z,18.30
2022-09-15T18:15:17.385Z,18.20
2022-09-15T18:17:40.866Z,18.40
2022-09-15T18:20:05.532Z,18.50
2022-09-15T18:22:48.227Z,18.40
2022-09-15T18:25:36.346Z,18.10
2022-09-15T18:28:25.604Z,18.00
2022-09-15T18:31:00.503Z,18.00
2022-09-15T18:33:32.848Z,18.30
2022-09-15T18:36:11.365Z,18.10
2022-09-15T18:38:36.676Z,18.20
2022-09-15T18:41:01.419Z,18.20
2022-09-15T18:43:28.256Z,18.10
2022-09-15T18:45:53.231Z,18.10
2022-09-15T18:48:17.524Z,18.10
2022-09-15T18:50:41.512Z,18.00
2022-09-15T18:53:05.341Z,17.90
2022-09-15T18:55:30.317Z,17.90
2022-09-15T18:57:54.064Z,18.00
2022-09-15T19:00:21.007Z,18.00
2022-09-15T19:02:45.118Z,17.90
2022-09-15T19:05:11.484Z,17.70
2022-09-15T19:07:35.216Z,17.60
2022-09-15T19:09:59.035Z,17.50
2022-09-15T19:12:24.026Z,17.50
2022-09-15T19:14:48.419Z,17.40
2022-09-15T19:17:12.960Z,17.40
2022-09-15T19:19:36.445Z,17.40
2022-09-15T19:21:59.873Z,17.20
2022-09-15T19:24:23.516Z,17.30
2022-09-15T19:26:47.811Z,17.30
2022-09-15T19:29:12.730Z,17.10
2022-09-15T19:31:41.839Z,17.20
2022-09-15T19:34:06.191Z,17.00
2022-09-15T19:36:29.679Z,17.10
2022-09-15T19:38:53.308Z,17.00
2022-09-15T19:41:18.880Z,16.90
2022-09-15T19:43:43.239Z,17.00
2022-09-15T19:46:13.895Z,16.90
2022-09-15T19:48:40.862Z,17.10
2022-09-15T19:51:08.281Z,17.20
2022-09-15T19:53:31.744Z,17.20
2022-09-15T19:55:55.285Z,17.10
2022-09-15T19:58:19.613Z,17.20
2022-09-15T20:00:43.152Z,17.10
2022-09-15T20:03:08.002Z,16.90
2022-09-15T20:05:31.439Z,17.00
2022-09-15T20:07:54.943Z,17.10
2022-09-15T20:10:18.516Z,16.80
2022-09-15T20:12:42.016Z,16.80
2022-09-15T20:15:07.045Z,16.70
2022-09-15T20:17:30.614Z,16.70
2022-09-15T20:19:55.523Z,16.90
2022-09-15T20:22:19.105Z,16.70
2022-09-15T20:24:42.617Z,16.70
2022-09-15T20:27:07.013Z,16.70
2022-09-15T20:29:30.431Z,16.70
2022-09-15T20:31:53.931Z,16.80
2022-09-15T20:34:18.661Z,16.90
2022-09-15T20:36:44.519Z,16.80
2022-09-15T20:39:12.803Z,16.80
2022-09-15T20:41:37.014Z,16.70
2022-09-15T20:44:00.898Z,16.70
2022-09-15T20:46:25.485Z,16.70
2022-09-15T20:48:49.751Z,16.60
2022-09-15T20:51:15.914Z,16.70
2022-09-15T20:53:41.759Z,16.70
2022-09-15T20:56:05.616Z,16.80
2022-09-15T20:58:29.334Z,16.90
2022-09-15T21:00:53.616Z,16.70
2022-09-15T21:03:17.323Z,16.70
2022-09-15T21:05:41.028Z,16.70
2022-09-15T21:08:05.140Z,16.80
2022-09-15T21:10:30.582Z,16.70
2022-09-15T21:12:54.891Z,16.70
2022-09-15T21:15:18.319Z,16.80
2022-09-15T21:17:41.823Z,16.70
2022-09-15T21:20:05.994Z,16.70
2022-09-15T21:22:29.820Z,16.60
2022-09-15T21:24:53.246Z,16.70
2022-09-15T21:27:27.874Z,16.70
2022-09-15T21:29:51.335Z,16.80
2022-09-15T21:32:14.821Z,16.80
2022-09-15T21:34:38.352Z,16.60
2022-09-15T21:37:01.837Z,16.30
2022-09-15T21:39:25.445Z,16.50
2022-09-15T21:41:49.021Z,16.70
2022-09-15T21:44:14.326Z,16.70
2022-09-15T21:46:37.917Z,16.70
2022-09-15T21:49:02.050Z,16.80
2022-09-15T21:51:27.136Z,16.60
2022-09-15T21:53:52.244Z,16.60
2022-09-15T21:56:15.770Z,16.60
2022-09-15T21:58:42.893Z,16.60
2022-09-15T22:01:13.885Z,16.40
2022-09-15T22:03:41.125Z,16.60
2022-09-15T22:06:05.018Z,16.40
2022-09-15T22:08:29.190Z,16.50
2022-09-15T22:11:00.882Z,16.50
2022-09-15T22:13:24.334Z,16.40
2022-09-15T22:15:47.814Z,16.20
2022-09-15T22:18:12.728Z,16.40
2022-09-15T22:20:36.212Z,16.40
2022-09-15T22:23:01.814Z,16.50
2022-09-15T22:25:25.610Z,16.50
2022-09-15T22:27:49.377Z,16.60
2022-09-15T22:30:14.285Z,16.60
2022-09-15T22:32:37.801Z,16.50
2022-09-15T22:35:02.835Z,16.40
2022-09-15T22:37:27.652Z,16.40
2022-09-15T22:39:58.896Z,16.50
2022-09-15T22:42:22.926Z,16.50
2022-09-15T22:44:47.073Z,16.30
2022-09-15T22:47:11.127Z,16.40
2022-09-15T22:49:34.538Z,16.40
2022-09-15T22:51:59.378Z,16.40
2022-09-15T22:54:22.957Z,16.30
2022-09-15T22:56:47.768Z,16.40
2022-09-15T22:59:11.284Z,16.50
2022-09-15T23:01:34.723Z,16.30
2022-09-15T23:04:00.140Z,16.40
2022-09-15T23:06:24.192Z,16.30
2022-09-15T23:08:52.891Z,16.20
2022-09-15T23:11:17.147Z,16.00
2022-09-15T23:13:41.049Z,16.10
2022-09-15T23:16:05.855Z,16.20
2022-09-15T23:18:29.727Z,16.30
2022-09-15T23:20:58.831Z,16.10
2022-09-15T23:23:22.548Z,16.00
2022-09-15T23:25:48.033Z,16.00
2022-09-15T23:28:11.625Z,15.90
2022-09-15T23:30:35.685Z,16.10
2022-09-15T23:32:59.079Z,16.20
2022-09-15T23:35:22.661Z,16.10
2022-09-15T23:37:46.131Z,16.10
2022-09-15T23:40:10.819Z,16.10
2022-09-15T23:42:35.746Z,16.00
2022-09-15T23:44:59.763Z,16.10
2022-09-15T23:47:23.234Z,16.30
2022-09-15T23:49:46.627Z,16.30
2022-09-15T23:52:10.161Z,16.30
2022-09-15T23:54:34.115Z,16.30
2022-09-15T23:56:57.844Z,16.20
2022-09-15T23:59:23.373Z,16.40
